sensor_id;sensor_type;location;lat;lon;timestamp;P1;durP1;ratioP1;P2;durP2;ratioP2
20209;SDS011;10264;53.178;5.840;2022-07-10T00:00:46;6.57;;;1.70;;
20209;SDS011;10264;53.178;5.840;2022-07-10T00:03:17;7.80;;;2.00;;
20209;SDS011;10264;53.178;5.840;2022-07-10T00:05:58;5.37;;;1.83;;
20209;SDS011;10264;53.178;5.840;2022-07-10T00:14:53;10.87;;;2.03;;
20209;SDS011;10264;53.178;5.840;2022-07-10T00:20:06;5.67;;;1.70;;
20209;SDS011;10264;53.178;5.840;2022-07-10T00:22:33;9.50;;;1.90;;
20209;SDS011;10264;53.178;5.840;2022-07-10T00:28:45;8.43;;;1.43;;
20209;SDS011;10264;53.178;5.840;2022-07-10T00:34:56;5.73;;;1.60;;
20209;SDS011;10264;53.178;5.840;2022-07-10T00:40:54;6.23;;;1.80;;
20209;SDS011;10264;53.178;5.840;2022-07-10T00:46:26;8.00;;;1.80;;
20209;SDS011;10264;53.178;5.840;2022-07-10T00:48:54;9.47;;;1.70;;
20209;SDS011;10264;53.178;5.840;2022-07-10T00:51:22;10.03;;;2.13;;
20209;SDS011;10264;53.178;5.840;2022-07-10T00:53:50;8.20;;;1.83;;
20209;SDS011;10264;53.178;5.840;2022-07-10T00:56:27;13.53;;;3.13;;
20209;SDS011;10264;53.178;5.840;2022-07-10T00:59:42;7.70;;;2.33;;
20209;SDS011;10264;53.178;5.840;2022-07-10T01:02:10;7.77;;;2.37;;
20209;SDS011;10264;53.178;5.840;2022-07-10T01:04:45;12.07;;;3.17;;
20209;SDS011;10264;53.178;5.840;2022-07-10T01:07:14;8.33;;;1.93;;
20209;SDS011;10264;53.178;5.840;2022-07-10T01:13:19;7.50;;;2.23;;
20209;SDS011;10264;53.178;5.840;2022-07-10T01:15:46;12.60;;;1.70;;
20209;SDS011;10264;53.178;5.840;2022-07-10T01:21:53;6.33;;;2.30;;
20209;SDS011;10264;53.178;5.840;2022-07-10T01:45:07;6.00;;;1.33;;
20209;SDS011;10264;53.178;5.840;2022-07-10T01:50:46;3.30;;;1.40;;
20209;SDS011;10264;53.178;5.840;2022-07-10T01:53:13;7.40;;;1.70;;
20209;SDS011;10264;53.178;5.840;2022-07-10T01:58:54;4.73;;;1.20;;
20209;SDS011;10264;53.178;5.840;2022-07-10T02:01:20;7.37;;;1.43;;
20209;SDS011;10264;53.178;5.840;2022-07-10T02:03:47;7.67;;;1.80;;
20209;SDS011;10264;53.178;5.840;2022-07-10T02:06:14;8.67;;;1.90;;
20209;SDS011;10264;53.178;5.840;2022-07-10T02:08:40;4.83;;;1.30;;
20209;SDS011;10264;53.178;5.840;2022-07-10T02:11:08;6.40;;;1.57;;
20209;SDS011;10264;53.178;5.840;2022-07-10T02:13:34;5.27;;;1.90;;
20209;SDS011;10264;53.178;5.840;2022-07-10T02:16:01;5.23;;;1.60;;
20209;SDS011;10264;53.178;5.840;2022-07-10T02:18:29;4.67;;;1.30;;
20209;SDS011;10264;53.178;5.840;2022-07-10T02:20:55;7.30;;;1.57;;
20209;SDS011;10264;53.178;5.840;2022-07-10T02:23:22;6.43;;;1.50;;
20209;SDS011;10264;53.178;5.840;2022-07-10T02:25:48;7.90;;;1.67;;
20209;SDS011;10264;53.178;5.840;2022-07-10T02:28:36;5.27;;;1.73;;
20209;SDS011;10264;53.178;5.840;2022-07-10T02:31:07;4.43;;;1.60;;
20209;SDS011;10264;53.178;5.840;2022-07-10T02:33:36;9.40;;;1.70;;
20209;SDS011;10264;53.178;5.840;2022-07-10T02:36:25;9.37;;;1.80;;
20209;SDS011;10264;53.178;5.840;2022-07-10T02:38:52;5.53;;;1.93;;
20209;SDS011;10264;53.178;5.840;2022-07-10T02:41:22;6.07;;;1.47;;
20209;SDS011;10264;53.178;5.840;2022-07-10T02:51:47;5.47;;;1.97;;
20209;SDS011;10264;53.178;5.840;2022-07-10T03:17:52;8.93;;;2.30;;
20209;SDS011;10264;53.178;5.840;2022-07-10T03:20:18;7.70;;;2.03;;
20209;SDS011;10264;53.178;5.840;2022-07-10T03:22:45;9.60;;;3.20;;
20209;SDS011;10264;53.178;5.840;2022-07-10T03:25:12;9.63;;;2.23;;
20209;SDS011;10264;53.178;5.840;2022-07-10T03:27:38;11.77;;;2.20;;
20209;SDS011;10264;53.178;5.840;2022-07-10T03:30:07;10.90;;;2.67;;
20209;SDS011;10264;53.178;5.840;2022-07-10T03:36:25;7.57;;;2.17;;
20209;SDS011;10264;53.178;5.840;2022-07-10T03:38:51;5.50;;;2.40;;
20209;SDS011;10264;53.178;5.840;2022-07-10T03:41:18;8.60;;;2.30;;
20209;SDS011;10264;53.178;5.840;2022-07-10T03:43:44;10.57;;;2.80;;
20209;SDS011;10264;53.178;5.840;2022-07-10T03:46:11;9.67;;;2.63;;
20209;SDS011;10264;53.178;5.840;2022-07-10T03:52:17;7.10;;;2.20;;
20209;SDS011;10264;53.178;5.840;2022-07-10T03:54:43;9.73;;;2.77;;
20209;SDS011;10264;53.178;5.840;2022-07-10T03:57:10;8.53;;;2.73;;
20209;SDS011;10264;53.178;5.840;2022-07-10T03:59:39;9.17;;;3.43;;
20209;SDS011;10264;53.178;5.840;2022-07-10T04:02:05;7.73;;;2.47;;
20209;SDS011;10264;53.178;5.840;2022-07-10T04:10:55;11.10;;;2.80;;
20209;SDS011;10264;53.178;5.840;2022-07-10T04:13:21;8.30;;;2.80;;
20209;SDS011;10264;53.178;5.840;2022-07-10T04:15:47;7.57;;;3.10;;
20209;SDS011;10264;53.178;5.840;2022-07-10T04:18:17;6.33;;;2.40;;
20209;SDS011;10264;53.178;5.840;2022-07-10T04:20:53;9.07;;;2.33;;
20209;SDS011;10264;53.178;5.840;2022-07-10T04:23:37;8.03;;;3.37;;
20209;SDS011;10264;53.178;5.840;2022-07-10T04:26:04;5.77;;;2.30;;
20209;SDS011;10264;53.178;5.840;2022-07-10T04:28:33;11.10;;;2.77;;
20209;SDS011;10264;53.178;5.840;2022-07-10T04:34:52;9.40;;;3.37;;
20209;SDS011;10264;53.178;5.840;2022-07-10T04:37:19;4.47;;;2.20;;
20209;SDS011;10264;53.178;5.840;2022-07-10T04:49:41;8.73;;;3.47;;
20209;SDS011;10264;53.178;5.840;2022-07-10T04:52:09;10.73;;;2.80;;
20209;SDS011;10264;53.178;5.840;2022-07-10T04:54:36;6.50;;;2.37;;
20209;SDS011;10264;53.178;5.840;2022-07-10T04:57:02;7.53;;;2.80;;
20209;SDS011;10264;53.178;5.840;2022-07-10T04:59:35;6.40;;;2.07;;
20209;SDS011;10264;53.178;5.840;2022-07-10T05:05:52;14.13;;;3.23;;
20209;SDS011;10264;53.178;5.840;2022-07-10T05:08:18;11.87;;;3.70;;
20209;SDS011;10264;53.178;5.840;2022-07-10T05:10:45;10.70;;;2.77;;
20209;SDS011;10264;53.178;5.840;2022-07-10T05:13:12;7.13;;;2.50;;
20209;SDS011;10264;53.178;5.840;2022-07-10T05:15:38;10.37;;;2.70;;
20209;SDS011;10264;53.178;5.840;2022-07-10T05:18:06;6.27;;;2.37;;
20209;SDS011;10264;53.178;5.840;2022-07-10T05:20:33;9.83;;;2.93;;
20209;SDS011;10264;53.178;5.840;2022-07-10T05:22:59;10.40;;;2.90;;
20209;SDS011;10264;53.178;5.840;2022-07-10T05:25:26;15.33;;;3.50;;
20209;SDS011;10264;53.178;5.840;2022-07-10T05:27:52;5.43;;;2.90;;
20209;SDS011;10264;53.178;5.840;2022-07-10T05:30:19;6.17;;;2.80;;
20209;SDS011;10264;53.178;5.840;2022-07-10T05:32:45;7.70;;;2.67;;
20209;SDS011;10264;53.178;5.840;2022-07-10T05:35:15;9.17;;;3.00;;
20209;SDS011;10264;53.178;5.840;2022-07-10T05:37:42;7.53;;;3.83;;
20209;SDS011;10264;53.178;5.840;2022-07-10T05:40:08;8.60;;;3.33;;
20209;SDS011;10264;53.178;5.840;2022-07-10T05:42:35;10.93;;;3.13;;
20209;SDS011;10264;53.178;5.840;2022-07-10T05:45:04;11.37;;;3.57;;
20209;SDS011;10264;53.178;5.840;2022-07-10T05:47:33;7.90;;;2.70;;
20209;SDS011;10264;53.178;5.840;2022-07-10T05:50:01;9.73;;;2.70;;
20209;SDS011;10264;53.178;5.840;2022-07-10T05:52:30;12.27;;;2.40;;
20209;SDS011;10264;53.178;5.840;2022-07-10T05:54:57;7.27;;;2.73;;
20209;SDS011;10264;53.178;5.840;2022-07-10T05:57:24;5.50;;;2.33;;
20209;SDS011;10264;53.178;5.840;2022-07-10T05:59:51;8.50;;;2.83;;
20209;SDS011;10264;53.178;5.840;2022-07-10T06:02:21;10.43;;;2.30;;
20209;SDS011;10264;53.178;5.840;2022-07-10T06:04:50;6.13;;;2.70;;
20209;SDS011;10264;53.178;5.840;2022-07-10T06:07:19;7.80;;;2.83;;
20209;SDS011;10264;53.178;5.840;2022-07-10T06:09:46;5.97;;;2.50;;
20209;SDS011;10264;53.178;5.840;2022-07-10T06:12:14;5.17;;;2.87;;
20209;SDS011;10264;53.178;5.840;2022-07-10T06:14:44;5.90;;;1.90;;
20209;SDS011;10264;53.178;5.840;2022-07-10T06:17:13;4.97;;;2.20;;
20209;SDS011;10264;53.178;5.840;2022-07-10T06:19:43;9.10;;;2.27;;
20209;SDS011;10264;53.178;5.840;2022-07-10T06:22:11;3.47;;;1.90;;
20209;SDS011;10264;53.178;5.840;2022-07-10T06:24:38;3.03;;;1.63;;
20209;SDS011;10264;53.178;5.840;2022-07-10T06:27:05;6.33;;;2.20;;
20209;SDS011;10264;53.178;5.840;2022-07-10T06:29:33;7.33;;;2.10;;
20209;SDS011;10264;53.178;5.840;2022-07-10T06:32:01;5.80;;;2.10;;
20209;SDS011;10264;53.178;5.840;2022-07-10T06:34:30;6.23;;;2.00;;
20209;SDS011;10264;53.178;5.840;2022-07-10T06:36:58;5.50;;;2.03;;
20209;SDS011;10264;53.178;5.840;2022-07-10T06:39:24;7.97;;;1.87;;
20209;SDS011;10264;53.178;5.840;2022-07-10T06:41:51;4.73;;;2.27;;
20209;SDS011;10264;53.178;5.840;2022-07-10T06:44:20;2.93;;;1.60;;
20209;SDS011;10264;53.178;5.840;2022-07-10T06:46:47;6.13;;;1.87;;
20209;SDS011;10264;53.178;5.840;2022-07-10T06:49:15;3.27;;;1.90;;
20209;SDS011;10264;53.178;5.840;2022-07-10T06:51:41;4.07;;;1.57;;
20209;SDS011;10264;53.178;5.840;2022-07-10T06:54:08;5.73;;;1.90;;
20209;SDS011;10264;53.178;5.840;2022-07-10T06:56:34;3.80;;;2.00;;
20209;SDS011;10264;53.178;5.840;2022-07-10T06:59:01;5.23;;;2.00;;
20209;SDS011;10264;53.178;5.840;2022-07-10T07:01:27;6.77;;;1.70;;
20209;SDS011;10264;53.178;5.840;2022-07-10T07:03:54;4.60;;;1.90;;
20209;SDS011;10264;53.178;5.840;2022-07-10T07:06:23;4.07;;;1.87;;
20209;SDS011;10264;53.178;5.840;2022-07-10T07:08:51;6.90;;;2.20;;
20209;SDS011;10264;53.178;5.840;2022-07-10T07:11:17;3.87;;;2.00;;
20209;SDS011;10264;53.178;5.840;2022-07-10T07:13:46;6.50;;;2.43;;
20209;SDS011;10264;53.178;5.840;2022-07-10T07:16:14;8.47;;;2.30;;
20209;SDS011;10264;53.178;5.840;2022-07-10T07:18:40;4.60;;;2.63;;
20209;SDS011;10264;53.178;5.840;2022-07-10T07:21:08;8.50;;;2.47;;
20209;SDS011;10264;53.178;5.840;2022-07-10T07:23:41;6.67;;;2.13;;
20209;SDS011;10264;53.178;5.840;2022-07-10T07:26:08;3.67;;;2.10;;
20209;SDS011;10264;53.178;5.840;2022-07-10T07:28:43;4.53;;;2.30;;
20209;SDS011;10264;53.178;5.840;2022-07-10T07:31:10;5.77;;;2.20;;
20209;SDS011;10264;53.178;5.840;2022-07-10T07:33:40;7.03;;;2.57;;
20209;SDS011;10264;53.178;5.840;2022-07-10T07:36:10;8.13;;;2.20;;
20209;SDS011;10264;53.178;5.840;2022-07-10T07:38:36;6.43;;;2.60;;
20209;SDS011;10264;53.178;5.840;2022-07-10T07:41:03;5.77;;;2.30;;
20209;SDS011;10264;53.178;5.840;2022-07-10T07:43:30;5.97;;;2.37;;
20209;SDS011;10264;53.178;5.840;2022-07-10T07:46:00;6.33;;;2.03;;
20209;SDS011;10264;53.178;5.840;2022-07-10T07:48:30;9.30;;;2.33;;
20209;SDS011;10264;53.178;5.840;2022-07-10T07:51:10;3.17;;;2.00;;
20209;SDS011;10264;53.178;5.840;2022-07-10T07:53:42;4.27;;;2.00;;
20209;SDS011;10264;53.178;5.840;2022-07-10T07:56:09;3.87;;;1.50;;
20209;SDS011;10264;53.178;5.840;2022-07-10T07:58:36;6.43;;;2.13;;
20209;SDS011;10264;53.178;5.840;2022-07-10T08:01:03;4.43;;;1.87;;
20209;SDS011;10264;53.178;5.840;2022-07-10T08:03:38;9.37;;;2.33;;
20209;SDS011;10264;53.178;5.840;2022-07-10T08:06:30;6.47;;;2.00;;
20209;SDS011;10264;53.178;5.840;2022-07-10T08:09:27;4.73;;;1.50;;
20209;SDS011;10264;53.178;5.840;2022-07-10T08:11:56;8.90;;;1.73;;
20209;SDS011;10264;53.178;5.840;2022-07-10T08:14:23;6.13;;;1.93;;
20209;SDS011;10264;53.178;5.840;2022-07-10T08:16:51;5.23;;;2.20;;
20209;SDS011;10264;53.178;5.840;2022-07-10T08:19:18;4.13;;;1.73;;
20209;SDS011;10264;53.178;5.840;2022-07-10T08:21:51;4.73;;;1.97;;
20209;SDS011;10264;53.178;5.840;2022-07-10T08:24:29;5.57;;;2.03;;
20209;SDS011;10264;53.178;5.840;2022-07-10T08:26:56;5.47;;;2.00;;
20209;SDS011;10264;53.178;5.840;2022-07-10T08:29:29;4.60;;;1.80;;
20209;SDS011;10264;53.178;5.840;2022-07-10T08:31:59;5.03;;;1.60;;
20209;SDS011;10264;53.178;5.840;2022-07-10T08:34:30;10.70;;;2.47;;
20209;SDS011;10264;53.178;5.840;2022-07-10T08:37:02;3.97;;;1.97;;
20209;SDS011;10264;53.178;5.840;2022-07-10T08:39:52;5.30;;;1.83;;
20209;SDS011;10264;53.178;5.840;2022-07-10T08:42:30;5.30;;;1.93;;
20209;SDS011;10264;53.178;5.840;2022-07-10T08:44:59;3.27;;;1.50;;
20209;SDS011;10264;53.178;5.840;2022-07-10T08:47:29;6.03;;;1.83;;
20209;SDS011;10264;53.178;5.840;2022-07-10T08:50:18;5.80;;;1.50;;
20209;SDS011;10264;53.178;5.840;2022-07-10T08:52:59;3.97;;;1.97;;
20209;SDS011;10264;53.178;5.840;2022-07-10T08:55:35;5.40;;;1.97;;
20209;SDS011;10264;53.178;5.840;2022-07-10T08:58:02;5.37;;;1.73;;
20209;SDS011;10264;53.178;5.840;2022-07-10T09:00:38;4.83;;;2.30;;
20209;SDS011;10264;53.178;5.840;2022-07-10T09:03:09;7.20;;;3.07;;
20209;SDS011;10264;53.178;5.840;2022-07-10T09:05:39;5.03;;;1.90;;
20209;SDS011;10264;53.178;5.840;2022-07-10T09:08:37;7.10;;;2.17;;
20209;SDS011;10264;53.178;5.840;2022-07-10T09:11:17;6.03;;;1.87;;
20209;SDS011;10264;53.178;5.840;2022-07-10T09:13:50;6.43;;;2.07;;
20209;SDS011;10264;53.178;5.840;2022-07-10T09:16:20;10.83;;;2.50;;
20209;SDS011;10264;53.178;5.840;2022-07-10T09:18:52;7.83;;;2.17;;
20209;SDS011;10264;53.178;5.840;2022-07-10T09:21:21;5.50;;;1.97;;
20209;SDS011;10264;53.178;5.840;2022-07-10T09:23:55;7.13;;;2.10;;
20209;SDS011;10264;53.178;5.840;2022-07-10T09:26:26;5.37;;;1.70;;
20209;SDS011;10264;53.178;5.840;2022-07-10T09:29:04;5.50;;;2.20;;
20209;SDS011;10264;53.178;5.840;2022-07-10T09:31:51;6.10;;;2.17;;
20209;SDS011;10264;53.178;5.840;2022-07-10T09:34:35;7.53;;;2.10;;
20209;SDS011;10264;53.178;5.840;2022-07-10T09:40:08;4.10;;;2.23;;
20209;SDS011;10264;53.178;5.840;2022-07-10T09:42:38;5.23;;;2.00;;
20209;SDS011;10264;53.178;5.840;2022-07-10T09:47:39;4.33;;;2.03;;
20209;SDS011;10264;53.178;5.840;2022-07-10T09:50:23;7.23;;;1.77;;
20209;SDS011;10264;53.178;5.840;2022-07-10T09:52:55;5.67;;;1.70;;
20209;SDS011;10264;53.178;5.840;2022-07-10T09:55:26;4.43;;;1.90;;
20209;SDS011;10264;53.178;5.840;2022-07-10T09:57:59;4.90;;;1.60;;
20209;SDS011;10264;53.178;5.840;2022-07-10T10:00:44;3.93;;;1.90;;
20209;SDS011;10264;53.178;5.840;2022-07-10T10:03:17;5.17;;;1.70;;
20209;SDS011;10264;53.178;5.840;2022-07-10T10:05:53;5.57;;;1.67;;
20209;SDS011;10264;53.178;5.840;2022-07-10T10:08:25;4.03;;;1.73;;
20209;SDS011;10264;53.178;5.840;2022-07-10T10:10:56;8.77;;;2.40;;
20209;SDS011;10264;53.178;5.840;2022-07-10T10:13:25;5.33;;;1.93;;
20209;SDS011;10264;53.178;5.840;2022-07-10T10:16:00;3.33;;;1.83;;
20209;SDS011;10264;53.178;5.840;2022-07-10T10:18:30;7.77;;;2.03;;
20209;SDS011;10264;53.178;5.840;2022-07-10T10:21:00;5.57;;;1.77;;
20209;SDS011;10264;53.178;5.840;2022-07-10T10:23:37;8.10;;;2.57;;
20209;SDS011;10264;53.178;5.840;2022-07-10T10:26:12;6.93;;;2.30;;
20209;SDS011;10264;53.178;5.840;2022-07-10T10:28:39;4.53;;;1.87;;
20209;SDS011;10264;53.178;5.840;2022-07-10T10:31:08;5.10;;;1.90;;
20209;SDS011;10264;53.178;5.840;2022-07-10T10:33:45;7.40;;;1.90;;
20209;SDS011;10264;53.178;5.840;2022-07-10T10:37:01;3.00;;;1.90;;
20209;SDS011;10264;53.178;5.840;2022-07-10T10:39:12;5.90;;;2.03;;
20209;SDS011;10264;53.178;5.840;2022-07-10T10:41:59;7.40;;;1.80;;
20209;SDS011;10264;53.178;5.840;2022-07-10T10:44:27;3.87;;;1.43;;
20209;SDS011;10264;53.178;5.840;2022-07-10T10:47:03;2.87;;;1.70;;
20209;SDS011;10264;53.178;5.840;2022-07-10T10:52:35;8.23;;;1.80;;
20209;SDS011;10264;53.178;5.840;2022-07-10T10:55:12;4.93;;;2.07;;
20209;SDS011;10264;53.178;5.840;2022-07-10T10:57:44;3.13;;;1.50;;
20209;SDS011;10264;53.178;5.840;2022-07-10T11:00:12;5.07;;;1.37;;
20209;SDS011;10264;53.178;5.840;2022-07-10T11:02:47;4.13;;;1.67;;
20209;SDS011;10264;53.178;5.840;2022-07-10T11:08:03;5.50;;;1.97;;
20209;SDS011;10264;53.178;5.840;2022-07-10T11:13:15;2.53;;;1.63;;
20209;SDS011;10264;53.178;5.840;2022-07-10T11:15:48;5.73;;;1.70;;
20209;SDS011;10264;53.178;5.840;2022-07-10T11:18:16;5.53;;;1.60;;
20209;SDS011;10264;53.178;5.840;2022-07-10T11:20:45;4.47;;;1.63;;
20209;SDS011;10264;53.178;5.840;2022-07-10T11:23:30;4.07;;;1.50;;
20209;SDS011;10264;53.178;5.840;2022-07-10T11:29:35;7.03;;;2.00;;
20209;SDS011;10264;53.178;5.840;2022-07-10T11:32:04;4.03;;;1.40;;
20209;SDS011;10264;53.178;5.840;2022-07-10T11:34:36;2.70;;;1.40;;
20209;SDS011;10264;53.178;5.840;2022-07-10T11:37:18;2.77;;;1.57;;
20209;SDS011;10264;53.178;5.840;2022-07-10T11:40:02;2.77;;;1.50;;
20209;SDS011;10264;53.178;5.840;2022-07-10T11:42:55;4.33;;;1.77;;
20209;SDS011;10264;53.178;5.840;2022-07-10T11:45:25;3.30;;;1.40;;
20209;SDS011;10264;53.178;5.840;2022-07-10T11:47:55;4.83;;;1.63;;
20209;SDS011;10264;53.178;5.840;2022-07-10T11:50:37;2.60;;;1.67;;
20209;SDS011;10264;53.178;5.840;2022-07-10T11:53:05;2.97;;;1.60;;
20209;SDS011;10264;53.178;5.840;2022-07-10T11:55:34;5.47;;;1.70;;
20209;SDS011;10264;53.178;5.840;2022-07-10T11:58:16;2.53;;;1.57;;
20209;SDS011;10264;53.178;5.840;2022-07-10T12:03:43;4.97;;;1.83;;
20209;SDS011;10264;53.178;5.840;2022-07-10T12:06:23;2.63;;;1.40;;
20209;SDS011;10264;53.178;5.840;2022-07-10T12:08:54;2.67;;;1.60;;
20209;SDS011;10264;53.178;5.840;2022-07-10T12:11:21;3.93;;;1.40;;
20209;SDS011;10264;53.178;5.840;2022-07-10T12:13:51;2.60;;;1.53;;
20209;SDS011;10264;53.178;5.840;2022-07-10T12:16:18;2.33;;;1.40;;
20209;SDS011;10264;53.178;5.840;2022-07-10T12:19:01;4.43;;;1.40;;
20209;SDS011;10264;53.178;5.840;2022-07-10T12:21:31;3.63;;;1.70;;
20209;SDS011;10264;53.178;5.840;2022-07-10T12:24:04;2.93;;;1.60;;
20209;SDS011;10264;53.178;5.840;2022-07-10T12:26:37;3.60;;;1.70;;
20209;SDS011;10264;53.178;5.840;2022-07-10T12:29:05;2.40;;;1.60;;
20209;SDS011;10264;53.178;5.840;2022-07-10T12:31:33;3.80;;;1.50;;
20209;SDS011;10264;53.178;5.840;2022-07-10T12:34:08;6.40;;;1.40;;
20209;SDS011;10264;53.178;5.840;2022-07-10T12:39:22;4.60;;;1.40;;
20209;SDS011;10264;53.178;5.840;2022-07-10T12:41:55;7.00;;;1.60;;
20209;SDS011;10264;53.178;5.840;2022-07-10T12:44:34;3.67;;;1.53;;
20209;SDS011;10264;53.178;5.840;2022-07-10T12:47:14;3.50;;;1.50;;
20209;SDS011;10264;53.178;5.840;2022-07-10T12:52:30;4.50;;;1.30;;
20209;SDS011;10264;53.178;5.840;2022-07-10T12:55:07;3.73;;;1.60;;
20209;SDS011;10264;53.178;5.840;2022-07-10T12:57:55;5.20;;;1.90;;
20209;SDS011;10264;53.178;5.840;2022-07-10T13:00:35;3.60;;;1.40;;
20209;SDS011;10264;53.178;5.840;2022-07-10T13:03:17;3.93;;;1.50;;
20209;SDS011;10264;53.178;5.840;2022-07-10T13:06:06;3.00;;;1.47;;
20209;SDS011;10264;53.178;5.840;2022-07-10T13:08:43;4.27;;;1.70;;
20209;SDS011;10264;53.178;5.840;2022-07-10T13:11:14;2.97;;;1.63;;
20209;SDS011;10264;53.178;5.840;2022-07-10T13:13:41;2.10;;;1.47;;
20209;SDS011;10264;53.178;5.840;2022-07-10T13:16:08;4.30;;;1.43;;
20209;SDS011;10264;53.178;5.840;2022-07-10T13:18:41;1.97;;;1.40;;
20209;SDS011;10264;53.178;5.840;2022-07-10T13:21:13;1.97;;;1.20;;
20209;SDS011;10264;53.178;5.840;2022-07-10T13:23:51;4.27;;;1.80;;
20209;SDS011;10264;53.178;5.840;2022-07-10T13:26:18;3.83;;;1.50;;
20209;SDS011;10264;53.178;5.840;2022-07-10T13:28:44;4.97;;;1.40;;
20209;SDS011;10264;53.178;5.840;2022-07-10T13:31:14;4.80;;;2.07;;
20209;SDS011;10264;53.178;5.840;2022-07-10T13:33:55;2.80;;;1.40;;
20209;SDS011;10264;53.178;5.840;2022-07-10T13:36:34;4.97;;;1.67;;
20209;SDS011;10264;53.178;5.840;2022-07-10T13:39:01;3.13;;;1.47;;
20209;SDS011;10264;53.178;5.840;2022-07-10T13:41:32;3.10;;;1.60;;
20209;SDS011;10264;53.178;5.840;2022-07-10T13:44:04;4.63;;;1.47;;
20209;SDS011;10264;53.178;5.840;2022-07-10T13:46:41;1.83;;;1.23;;
20209;SDS011;10264;53.178;5.840;2022-07-10T13:49:08;3.00;;;1.30;;
20209;SDS011;10264;53.178;5.840;2022-07-10T13:51:55;2.10;;;1.33;;
20209;SDS011;10264;53.178;5.840;2022-07-10T13:54:32;2.23;;;1.30;;
20209;SDS011;10264;53.178;5.840;2022-07-10T13:57:03;3.37;;;1.53;;
20209;SDS011;10264;53.178;5.840;2022-07-10T13:59:30;1.93;;;1.53;;
20209;SDS011;10264;53.178;5.840;2022-07-10T14:02:08;5.17;;;1.80;;
20209;SDS011;10264;53.178;5.840;2022-07-10T14:04:42;3.27;;;1.73;;
20209;SDS011;10264;53.178;5.840;2022-07-10T14:07:11;5.87;;;1.80;;
20209;SDS011;10264;53.178;5.840;2022-07-10T14:09:38;3.90;;;1.90;;
20209;SDS011;10264;53.178;5.840;2022-07-10T14:12:06;4.97;;;2.00;;
20209;SDS011;10264;53.178;5.840;2022-07-10T14:14:34;7.87;;;2.60;;
20209;SDS011;10264;53.178;5.840;2022-07-10T14:17:02;3.83;;;1.60;;
20209;SDS011;10264;53.178;5.840;2022-07-10T14:19:29;5.13;;;1.83;;
20209;SDS011;10264;53.178;5.840;2022-07-10T14:21:55;3.27;;;1.80;;
20209;SDS011;10264;53.178;5.840;2022-07-10T14:24:42;5.00;;;2.20;;
20209;SDS011;10264;53.178;5.840;2022-07-10T14:27:09;3.13;;;2.03;;
20209;SDS011;10264;53.178;5.840;2022-07-10T14:29:38;3.57;;;1.60;;
20209;SDS011;10264;53.178;5.840;2022-07-10T14:32:05;5.17;;;2.10;;
20209;SDS011;10264;53.178;5.840;2022-07-10T14:34:34;4.47;;;1.83;;
20209;SDS011;10264;53.178;5.840;2022-07-10T14:37:03;4.83;;;2.00;;
20209;SDS011;10264;53.178;5.840;2022-07-10T14:39:32;4.03;;;2.10;;
20209;SDS011;10264;53.178;5.840;2022-07-10T14:41:59;3.87;;;2.10;;
20209;SDS011;10264;53.178;5.840;2022-07-10T14:44:25;7.63;;;1.90;;
20209;SDS011;10264;53.178;5.840;2022-07-10T14:46:52;4.00;;;2.10;;
20209;SDS011;10264;53.178;5.840;2022-07-10T14:49:18;3.37;;;2.20;;
20209;SDS011;10264;53.178;5.840;2022-07-10T14:51:45;4.73;;;2.17;;
20209;SDS011;10264;53.178;5.840;2022-07-10T14:54:11;4.13;;;2.00;;
20209;SDS011;10264;53.178;5.840;2022-07-10T14:56:38;3.57;;;1.80;;
20209;SDS011;10264;53.178;5.840;2022-07-10T14:59:04;4.87;;;2.30;;
20209;SDS011;10264;53.178;5.840;2022-07-10T15:01:40;5.03;;;3.13;;
20209;SDS011;10264;53.178;5.840;2022-07-10T15:04:07;4.00;;;2.40;;
20209;SDS011;10264;53.178;5.840;2022-07-10T15:06:34;4.60;;;2.50;;
20209;SDS011;10264;53.178;5.840;2022-07-10T15:09:00;6.37;;;2.33;;
20209;SDS011;10264;53.178;5.840;2022-07-10T15:11:27;5.23;;;2.73;;
20209;SDS011;10264;53.178;5.840;2022-07-10T15:13:53;4.30;;;2.23;;
20209;SDS011;10264;53.178;5.840;2022-07-10T15:16:25;4.13;;;2.67;;
20209;SDS011;10264;53.178;5.840;2022-07-10T15:18:52;4.70;;;2.63;;
20209;SDS011;10264;53.178;5.840;2022-07-10T15:21:19;6.87;;;2.83;;
20209;SDS011;10264;53.178;5.840;2022-07-10T15:23:45;6.33;;;2.70;;
20209;SDS011;10264;53.178;5.840;2022-07-10T15:26:12;5.03;;;3.20;;
20209;SDS011;10264;53.178;5.840;2022-07-10T15:28:38;7.03;;;3.43;;
20209;SDS011;10264;53.178;5.840;2022-07-10T15:31:09;6.00;;;2.90;;
20209;SDS011;10264;53.178;5.840;2022-07-10T15:33:38;7.90;;;3.37;;
20209;SDS011;10264;53.178;5.840;2022-07-10T15:36:05;8.27;;;3.73;;
20209;SDS011;10264;53.178;5.840;2022-07-10T15:38:32;5.73;;;3.13;;
20209;SDS011;10264;53.178;5.840;2022-07-10T15:41:00;5.70;;;2.53;;
20209;SDS011;10264;53.178;5.840;2022-07-10T15:43:26;6.90;;;2.97;;
20209;SDS011;10264;53.178;5.840;2022-07-10T15:45:53;7.97;;;3.67;;
20209;SDS011;10264;53.178;5.840;2022-07-10T15:48:27;7.50;;;2.57;;
20209;SDS011;10264;53.178;5.840;2022-07-10T15:50:58;5.40;;;2.57;;
20209;SDS011;10264;53.178;5.840;2022-07-10T15:53:31;5.03;;;2.77;;
20209;SDS011;10264;53.178;5.840;2022-07-10T15:55:59;7.23;;;3.13;;
20209;SDS011;10264;53.178;5.840;2022-07-10T15:58:26;5.13;;;2.40;;
20209;SDS011;10264;53.178;5.840;2022-07-10T16:00:53;6.60;;;2.70;;
20209;SDS011;10264;53.178;5.840;2022-07-10T16:03:23;6.23;;;2.53;;
20209;SDS011;10264;53.178;5.840;2022-07-10T16:06:18;6.77;;;2.73;;
20209;SDS011;10264;53.178;5.840;2022-07-10T16:08:45;5.47;;;2.90;;
20209;SDS011;10264;53.178;5.840;2022-07-10T16:11:14;9.80;;;3.10;;
20209;SDS011;10264;53.178;5.840;2022-07-10T16:13:42;5.13;;;2.40;;
20209;SDS011;10264;53.178;5.840;2022-07-10T16:16:10;6.93;;;2.50;;
20209;SDS011;10264;53.178;5.840;2022-07-10T16:18:37;5.17;;;2.80;;
20209;SDS011;10264;53.178;5.840;2022-07-10T16:21:05;9.07;;;4.00;;
20209;SDS011;10264;53.178;5.840;2022-07-10T16:23:55;2.37;;;1.97;;
20209;SDS011;10264;53.178;5.840;2022-07-10T16:26:27;4.47;;;3.27;;
20209;SDS011;10264;53.178;5.840;2022-07-10T16:29:16;4.43;;;2.37;;
20209;SDS011;10264;53.178;5.840;2022-07-10T16:31:52;8.23;;;2.67;;
20209;SDS011;10264;53.178;5.840;2022-07-10T16:34:26;7.17;;;2.93;;
20209;SDS011;10264;53.178;5.840;2022-07-10T16:36:59;6.40;;;2.43;;
20209;SDS011;10264;53.178;5.840;2022-07-10T16:39:26;6.10;;;2.73;;
20209;SDS011;10264;53.178;5.840;2022-07-10T16:41:52;7.47;;;2.57;;
20209;SDS011;10264;53.178;5.840;2022-07-10T16:44:22;7.03;;;2.80;;
20209;SDS011;10264;53.178;5.840;2022-07-10T16:46:53;6.23;;;2.97;;
20209;SDS011;10264;53.178;5.840;2022-07-10T16:49:34;5.57;;;2.50;;
20209;SDS011;10264;53.178;5.840;2022-07-10T16:52:01;7.23;;;2.67;;
20209;SDS011;10264;53.178;5.840;2022-07-10T16:54:41;8.97;;;2.70;;
20209;SDS011;10264;53.178;5.840;2022-07-10T16:57:11;4.63;;;2.37;;
20209;SDS011;10264;53.178;5.840;2022-07-10T16:59:41;5.67;;;2.77;;
20209;SDS011;10264;53.178;5.840;2022-07-10T17:02:10;7.27;;;2.63;;
20209;SDS011;10264;53.178;5.840;2022-07-10T17:04:39;5.53;;;2.33;;
20209;SDS011;10264;53.178;5.840;2022-07-10T17:07:14;5.53;;;2.17;;
20209;SDS011;10264;53.178;5.840;2022-07-10T17:09:46;5.17;;;2.40;;
20209;SDS011;10264;53.178;5.840;2022-07-10T17:12:16;8.30;;;2.43;;
20209;SDS011;10264;53.178;5.840;2022-07-10T17:14:44;4.07;;;2.30;;
20209;SDS011;10264;53.178;5.840;2022-07-10T17:17:15;7.93;;;2.43;;
20209;SDS011;10264;53.178;5.840;2022-07-10T17:19:45;4.47;;;2.63;;
20209;SDS011;10264;53.178;5.840;2022-07-10T17:22:21;6.60;;;2.53;;
20209;SDS011;10264;53.178;5.840;2022-07-10T17:24:50;5.83;;;1.90;;
20209;SDS011;10264;53.178;5.840;2022-07-10T17:27:17;3.40;;;2.30;;
20209;SDS011;10264;53.178;5.840;2022-07-10T17:30:03;5.47;;;3.03;;
20209;SDS011;10264;53.178;5.840;2022-07-10T17:32:33;5.90;;;2.40;;
20209;SDS011;10264;53.178;5.840;2022-07-10T17:35:05;3.90;;;2.20;;
20209;SDS011;10264;53.178;5.840;2022-07-10T17:37:33;4.90;;;2.50;;